sensor_id;sensor_type;location;lat;lon;timestamp;P1;durP1;ratioP1;P2;durP2;ratioP2
45686;SDS011;31399;51.176;7.776;2023-05-10T00:01:43;0.65;;;0.32;;
45686;SDS011;31399;51.176;7.776;2023-05-10T00:04:09;0.57;;;0.40;;
45686;SDS011;31399;51.176;7.776;2023-05-10T00:06:36;1.70;;;0.52;;
45686;SDS011;31399;51.176;7.776;2023-05-10T00:09:03;0.55;;;0.40;;
45686;SDS011;31399;51.176;7.776;2023-05-10T00:11:30;1.45;;;0.30;;
45686;SDS011;31399;51.176;7.776;2023-05-10T00:13:56;1.48;;;0.45;;
45686;SDS011;31399;51.176;7.776;2023-05-10T00:16:23;0.85;;;0.60;;
45686;SDS011;31399;51.176;7.776;2023-05-10T00:18:50;0.70;;;0.47;;
45686;SDS011;31399;51.176;7.776;2023-05-10T00:21:16;0.70;;;0.50;;
45686;SDS011;31399;51.176;7.776;2023-05-10T00:23:46;2.50;;;0.50;;
45686;SDS011;31399;51.176;7.776;2023-05-10T00:26:13;0.70;;;0.40;;
45686;SDS011;31399;51.176;7.776;2023-05-10T00:28:39;2.38;;;0.35;;
45686;SDS011;31399;51.176;7.776;2023-05-10T00:31:06;0.90;;;0.40;;
45686;SDS011;31399;51.176;7.776;2023-05-10T00:33:32;1.73;;;0.30;;
45686;SDS011;31399;51.176;7.776;2023-05-10T00:35:59;0.43;;;0.20;;
45686;SDS011;31399;51.176;7.776;2023-05-10T00:38:26;0.30;;;0.22;;
45686;SDS011;31399;51.176;7.776;2023-05-10T00:40:52;0.75;;;0.30;;
45686;SDS011;31399;51.176;7.776;2023-05-10T00:43:19;1.15;;;0.30;;
45686;SDS011;31399;51.176;7.776;2023-05-10T00:45:45;2.35;;;0.30;;
45686;SDS011;31399;51.176;7.776;2023-05-10T00:48:12;3.88;;;0.47;;
45686;SDS011;31399;51.176;7.776;2023-05-10T00:50:39;1.50;;;0.30;;
45686;SDS011;31399;51.176;7.776;2023-05-10T00:53:07;2.90;;;0.40;;
45686;SDS011;31399;51.176;7.776;2023-05-10T00:55:34;4.93;;;0.50;;
45686;SDS011;31399;51.176;7.776;2023-05-10T00:58:00;0.90;;;0.40;;
45686;SDS011;31399;51.176;7.776;2023-05-10T01:00:27;4.03;;;0.40;;
45686;SDS011;31399;51.176;7.776;2023-05-10T01:02:55;0.43;;;0.30;;
45686;SDS011;31399;51.176;7.776;2023-05-10T01:05:22;2.72;;;0.38;;
45686;SDS011;31399;51.176;7.776;2023-05-10T01:07:49;0.88;;;0.30;;
45686;SDS011;31399;51.176;7.776;2023-05-10T01:10:16;0.38;;;0.13;;
45686;SDS011;31399;51.176;7.776;2023-05-10T01:12:43;4.32;;;0.20;;
45686;SDS011;31399;51.176;7.776;2023-05-10T01:15:11;0.35;;;0.20;;
45686;SDS011;31399;51.176;7.776;2023-05-10T01:17:39;0.28;;;0.20;;
45686;SDS011;31399;51.176;7.776;2023-05-10T01:20:07;1.65;;;0.20;;
45686;SDS011;31399;51.176;7.776;2023-05-10T01:25:27;0.60;;;0.22;;
45686;SDS011;31399;51.176;7.776;2023-05-10T01:41:42;3.72;;;0.55;;
45686;SDS011;31399;51.176;7.776;2023-05-10T01:44:15;1.15;;;0.20;;
45686;SDS011;31399;51.176;7.776;2023-05-10T01:46:45;1.88;;;0.50;;
45686;SDS011;31399;51.176;7.776;2023-05-10T01:49:25;0.85;;;0.47;;
45686;SDS011;31399;51.176;7.776;2023-05-10T01:51:54;1.13;;;0.40;;
45686;SDS011;31399;51.176;7.776;2023-05-10T01:54:28;2.15;;;0.70;;
45686;SDS011;31399;51.176;7.776;2023-05-10T01:56:56;3.60;;;0.50;;
45686;SDS011;31399;51.176;7.776;2023-05-10T01:59:28;2.70;;;0.50;;
45686;SDS011;31399;51.176;7.776;2023-05-10T02:01:57;2.50;;;0.70;;
45686;SDS011;31399;51.176;7.776;2023-05-10T02:04:25;3.90;;;0.77;;
45686;SDS011;31399;51.176;7.776;2023-05-10T02:06:53;1.27;;;0.55;;
45686;SDS011;31399;51.176;7.776;2023-05-10T02:09:20;1.77;;;0.80;;
45686;SDS011;31399;51.176;7.776;2023-05-10T02:11:47;1.65;;;1.00;;
45686;SDS011;31399;51.176;7.776;2023-05-10T02:14:14;2.15;;;1.00;;
45686;SDS011;31399;51.176;7.776;2023-05-10T02:16:42;1.10;;;0.65;;
45686;SDS011;31399;51.176;7.776;2023-05-10T02:19:09;1.08;;;0.60;;
45686;SDS011;31399;51.176;7.776;2023-05-10T02:21:37;1.20;;;0.80;;
45686;SDS011;31399;51.176;7.776;2023-05-10T02:24:04;1.45;;;0.80;;
45686;SDS011;31399;51.176;7.776;2023-05-10T02:26:31;1.50;;;0.90;;
45686;SDS011;31399;51.176;7.776;2023-05-10T02:28:59;2.17;;;1.10;;
45686;SDS011;31399;51.176;7.776;2023-05-10T02:31:30;1.37;;;0.70;;
45686;SDS011;31399;51.176;7.776;2023-05-10T02:33:58;3.25;;;1.00;;
45686;SDS011;31399;51.176;7.776;2023-05-10T02:36:26;1.00;;;0.50;;
45686;SDS011;31399;51.176;7.776;2023-05-10T02:38:56;1.48;;;0.60;;
45686;SDS011;31399;51.176;7.776;2023-05-10T02:41:23;2.65;;;1.13;;
45686;SDS011;31399;51.176;7.776;2023-05-10T02:43:51;1.25;;;1.05;;
45686;SDS011;31399;51.176;7.776;2023-05-10T02:46:22;1.35;;;0.82;;
45686;SDS011;31399;51.176;7.776;2023-05-10T02:48:49;2.28;;;0.60;;
45686;SDS011;31399;51.176;7.776;2023-05-10T02:51:16;1.90;;;1.00;;
45686;SDS011;31399;51.176;7.776;2023-05-10T02:53:45;2.17;;;0.50;;
45686;SDS011;31399;51.176;7.776;2023-05-10T02:56:25;3.53;;;0.63;;
45686;SDS011;31399;51.176;7.776;2023-05-10T02:59:01;2.85;;;0.50;;
45686;SDS011;31399;51.176;7.776;2023-05-10T03:01:28;3.28;;;0.88;;
45686;SDS011;31399;51.176;7.776;2023-05-10T03:03:55;0.88;;;0.50;;
45686;SDS011;31399;51.176;7.776;2023-05-10T03:06:22;1.65;;;1.00;;
45686;SDS011;31399;51.176;7.776;2023-05-10T03:08:49;1.67;;;0.95;;
45686;SDS011;31399;51.176;7.776;2023-05-10T03:11:25;0.82;;;0.52;;
45686;SDS011;31399;51.176;7.776;2023-05-10T03:14:07;1.35;;;0.88;;
45686;SDS011;31399;51.176;7.776;2023-05-10T03:16:47;7.13;;;1.17;;
45686;SDS011;31399;51.176;7.776;2023-05-10T03:22:37;2.28;;;1.15;;
45686;SDS011;31399;51.176;7.776;2023-05-10T03:25:06;1.83;;;1.13;;
45686;SDS011;31399;51.176;7.776;2023-05-10T03:27:33;5.63;;;1.17;;
45686;SDS011;31399;51.176;7.776;2023-05-10T03:30:01;2.55;;;1.50;;
45686;SDS011;31399;51.176;7.776;2023-05-10T03:32:28;5.85;;;1.35;;
45686;SDS011;31399;51.176;7.776;2023-05-10T03:34:56;2.13;;;1.20;;
45686;SDS011;31399;51.176;7.776;2023-05-10T03:44:56;3.30;;;1.80;;
45686;SDS011;31399;51.176;7.776;2023-05-10T03:47:23;3.28;;;1.75;;
45686;SDS011;31399;51.176;7.776;2023-05-10T03:49:50;14.90;;;2.30;;
45686;SDS011;31399;51.176;7.776;2023-05-10T03:52:16;3.58;;;1.90;;
45686;SDS011;31399;51.176;7.776;2023-05-10T03:54:43;6.30;;;2.22;;
45686;SDS011;31399;51.176;7.776;2023-05-10T03:57:10;5.03;;;2.10;;
45686;SDS011;31399;51.176;7.776;2023-05-10T03:59:36;4.72;;;2.25;;
45686;SDS011;31399;51.176;7.776;2023-05-10T04:02:03;5.45;;;3.40;;
45686;SDS011;31399;51.176;7.776;2023-05-10T04:04:30;6.03;;;2.17;;
45686;SDS011;31399;51.176;7.776;2023-05-10T04:06:56;5.25;;;2.63;;
45686;SDS011;31399;51.176;7.776;2023-05-10T04:09:23;4.72;;;2.67;;
45686;SDS011;31399;51.176;7.776;2023-05-10T04:11:50;6.85;;;2.78;;
45686;SDS011;31399;51.176;7.776;2023-05-10T04:14:17;7.85;;;3.70;;
45686;SDS011;31399;51.176;7.776;2023-05-10T04:16:43;10.05;;;3.75;;
45686;SDS011;31399;51.176;7.776;2023-05-10T04:19:11;6.60;;;3.97;;
45686;SDS011;31399;51.176;7.776;2023-05-10T04:21:37;9.73;;;5.00;;
45686;SDS011;31399;51.176;7.776;2023-05-10T04:24:04;9.15;;;5.28;;
45686;SDS011;31399;51.176;7.776;2023-05-10T04:26:31;10.00;;;6.10;;
45686;SDS011;31399;51.176;7.776;2023-05-10T04:28:57;9.20;;;5.47;;
45686;SDS011;31399;51.176;7.776;2023-05-10T04:31:24;11.27;;;6.30;;
45686;SDS011;31399;51.176;7.776;2023-05-10T04:33:51;9.52;;;5.35;;
45686;SDS011;31399;51.176;7.776;2023-05-10T04:36:17;13.32;;;5.75;;
45686;SDS011;31399;51.176;7.776;2023-05-10T04:38:44;10.85;;;6.07;;
45686;SDS011;31399;51.176;7.776;2023-05-10T04:41:11;13.32;;;6.50;;
45686;SDS011;31399;51.176;7.776;2023-05-10T04:43:38;16.42;;;6.32;;
45686;SDS011;31399;51.176;7.776;2023-05-10T04:46:05;9.48;;;5.50;;
45686;SDS011;31399;51.176;7.776;2023-05-10T04:48:32;9.30;;;5.80;;
45686;SDS011;31399;51.176;7.776;2023-05-10T04:50:58;10.18;;;5.40;;
45686;SDS011;31399;51.176;7.776;2023-05-10T04:53:25;14.73;;;6.40;;
45686;SDS011;31399;51.176;7.776;2023-05-10T04:55:52;12.25;;;5.72;;
45686;SDS011;31399;51.176;7.776;2023-05-10T04:58:18;15.18;;;5.28;;
45686;SDS011;31399;51.176;7.776;2023-05-10T05:00:45;7.63;;;4.85;;
45686;SDS011;31399;51.176;7.776;2023-05-10T05:03:12;10.73;;;5.65;;
45686;SDS011;31399;51.176;7.776;2023-05-10T05:05:38;8.88;;;6.18;;
45686;SDS011;31399;51.176;7.776;2023-05-10T05:08:05;7.93;;;5.72;;
45686;SDS011;31399;51.176;7.776;2023-05-10T05:10:32;11.48;;;6.15;;
45686;SDS011;31399;51.176;7.776;2023-05-10T05:12:58;10.35;;;6.20;;
45686;SDS011;31399;51.176;7.776;2023-05-10T05:15:25;11.85;;;6.60;;
45686;SDS011;31399;51.176;7.776;2023-05-10T05:17:52;12.70;;;7.82;;
45686;SDS011;31399;51.176;7.776;2023-05-10T05:20:18;10.90;;;6.97;;
45686;SDS011;31399;51.176;7.776;2023-05-10T05:22:45;15.25;;;7.10;;
45686;SDS011;31399;51.176;7.776;2023-05-10T05:25:12;11.68;;;6.85;;
45686;SDS011;31399;51.176;7.776;2023-05-10T05:27:39;14.05;;;7.70;;
45686;SDS011;31399;51.176;7.776;2023-05-10T05:30:05;10.18;;;6.63;;
45686;SDS011;31399;51.176;7.776;2023-05-10T05:32:32;10.43;;;6.88;;
45686;SDS011;31399;51.176;7.776;2023-05-10T05:34:59;13.98;;;7.05;;
45686;SDS011;31399;51.176;7.776;2023-05-10T05:37:26;12.45;;;7.00;;
45686;SDS011;31399;51.176;7.776;2023-05-10T05:39:52;12.73;;;6.20;;
45686;SDS011;31399;51.176;7.776;2023-05-10T05:42:21;11.18;;;5.95;;
45686;SDS011;31399;51.176;7.776;2023-05-10T05:44:47;20.00;;;6.47;;
45686;SDS011;31399;51.176;7.776;2023-05-10T05:47:14;11.40;;;6.45;;
45686;SDS011;31399;51.176;7.776;2023-05-10T05:49:41;12.02;;;6.05;;
45686;SDS011;31399;51.176;7.776;2023-05-10T05:52:07;10.93;;;5.85;;
45686;SDS011;31399;51.176;7.776;2023-05-10T05:54:34;10.48;;;5.82;;
45686;SDS011;31399;51.176;7.776;2023-05-10T05:57:01;11.45;;;5.90;;
45686;SDS011;31399;51.176;7.776;2023-05-10T05:59:27;13.30;;;5.78;;
45686;SDS011;31399;51.176;7.776;2023-05-10T06:01:54;10.80;;;6.45;;
45686;SDS011;31399;51.176;7.776;2023-05-10T06:04:21;12.63;;;6.55;;
45686;SDS011;31399;51.176;7.776;2023-05-10T06:06:48;14.40;;;6.65;;
45686;SDS011;31399;51.176;7.776;2023-05-10T06:09:14;10.20;;;6.43;;
45686;SDS011;31399;51.176;7.776;2023-05-10T06:11:42;14.98;;;7.07;;
45686;SDS011;31399;51.176;7.776;2023-05-10T06:14:09;16.02;;;7.35;;
45686;SDS011;31399;51.176;7.776;2023-05-10T06:16:36;12.32;;;6.55;;
45686;SDS011;31399;51.176;7.776;2023-05-10T06:19:03;11.48;;;6.53;;
45686;SDS011;31399;51.176;7.776;2023-05-10T06:21:30;15.77;;;8.48;;
45686;SDS011;31399;51.176;7.776;2023-05-10T06:23:56;16.83;;;7.60;;
45686;SDS011;31399;51.176;7.776;2023-05-10T06:26:23;20.00;;;8.82;;
45686;SDS011;31399;51.176;7.776;2023-05-10T06:28:50;19.95;;;8.00;;
45686;SDS011;31399;51.176;7.776;2023-05-10T06:31:16;15.57;;;7.47;;
45686;SDS011;31399;51.176;7.776;2023-05-10T06:33:44;18.42;;;9.07;;
45686;SDS011;31399;51.176;7.776;2023-05-10T06:36:10;18.02;;;8.15;;
45686;SDS011;31399;51.176;7.776;2023-05-10T06:38:37;13.60;;;7.50;;
45686;SDS011;31399;51.176;7.776;2023-05-10T06:41:04;14.98;;;8.00;;
45686;SDS011;31399;51.176;7.776;2023-05-10T06:43:31;15.68;;;8.00;;
45686;SDS011;31399;51.176;7.776;2023-05-10T06:45:57;13.35;;;7.68;;
45686;SDS011;31399;51.176;7.776;2023-05-10T06:48:24;12.48;;;7.18;;
45686;SDS011;31399;51.176;7.776;2023-05-10T06:50:51;15.60;;;8.80;;
45686;SDS011;31399;51.176;7.776;2023-05-10T06:53:18;12.95;;;8.00;;
45686;SDS011;31399;51.176;7.776;2023-05-10T06:55:44;11.48;;;7.07;;
45686;SDS011;31399;51.176;7.776;2023-05-10T06:58:11;15.60;;;7.50;;
45686;SDS011;31399;51.176;7.776;2023-05-10T07:00:54;10.77;;;6.82;;
45686;SDS011;31399;51.176;7.776;2023-05-10T07:03:20;13.07;;;7.57;;
45686;SDS011;31399;51.176;7.776;2023-05-10T07:05:47;12.23;;;7.50;;
45686;SDS011;31399;51.176;7.776;2023-05-10T07:08:14;11.55;;;6.70;;
45686;SDS011;31399;51.176;7.776;2023-05-10T07:10:41;13.40;;;6.55;;
45686;SDS011;31399;51.176;7.776;2023-05-10T07:13:07;11.27;;;6.40;;
45686;SDS011;31399;51.176;7.776;2023-05-10T07:15:34;11.68;;;6.13;;
45686;SDS011;31399;51.176;7.776;2023-05-10T07:18:01;10.63;;;6.18;;
45686;SDS011;31399;51.176;7.776;2023-05-10T07:20:28;10.00;;;5.97;;
45686;SDS011;31399;51.176;7.776;2023-05-10T07:22:54;11.55;;;6.03;;
45686;SDS011;31399;51.176;7.776;2023-05-10T07:25:21;12.02;;;6.43;;
45686;SDS011;31399;51.176;7.776;2023-05-10T07:27:48;13.70;;;6.85;;
45686;SDS011;31399;51.176;7.776;2023-05-10T07:30:14;15.88;;;7.63;;
45686;SDS011;31399;51.176;7.776;2023-05-10T07:32:41;15.10;;;7.53;;
45686;SDS011;31399;51.176;7.776;2023-05-10T07:35:08;16.75;;;7.82;;
45686;SDS011;31399;51.176;7.776;2023-05-10T07:37:35;16.00;;;8.30;;
45686;SDS011;31399;51.176;7.776;2023-05-10T07:40:02;20.42;;;9.32;;
45686;SDS011;31399;51.176;7.776;2023-05-10T07:42:29;18.67;;;8.73;;
45686;SDS011;31399;51.176;7.776;2023-05-10T07:44:55;19.60;;;9.48;;
45686;SDS011;31399;51.176;7.776;2023-05-10T07:47:22;18.33;;;9.15;;
45686;SDS011;31399;51.176;7.776;2023-05-10T07:49:49;16.33;;;8.73;;
45686;SDS011;31399;51.176;7.776;2023-05-10T07:52:16;18.95;;;9.27;;
45686;SDS011;31399;51.176;7.776;2023-05-10T07:54:43;20.35;;;10.30;;
45686;SDS011;31399;51.176;7.776;2023-05-10T07:57:10;26.77;;;11.05;;
45686;SDS011;31399;51.176;7.776;2023-05-10T07:59:37;20.92;;;10.93;;
45686;SDS011;31399;51.176;7.776;2023-05-10T08:02:04;22.05;;;11.18;;
45686;SDS011;31399;51.176;7.776;2023-05-10T08:04:30;19.90;;;11.02;;
45686;SDS011;31399;51.176;7.776;2023-05-10T08:06:57;20.13;;;10.57;;
45686;SDS011;31399;51.176;7.776;2023-05-10T08:09:24;16.02;;;9.75;;
45686;SDS011;31399;51.176;7.776;2023-05-10T08:12:00;14.38;;;8.55;;
45686;SDS011;31399;51.176;7.776;2023-05-10T08:14:30;14.27;;;8.10;;
45686;SDS011;31399;51.176;7.776;2023-05-10T08:16:56;14.38;;;8.07;;
45686;SDS011;31399;51.176;7.776;2023-05-10T08:19:23;17.17;;;8.10;;
45686;SDS011;31399;51.176;7.776;2023-05-10T08:21:50;15.93;;;8.27;;
45686;SDS011;31399;51.176;7.776;2023-05-10T08:24:17;13.98;;;8.50;;
45686;SDS011;31399;51.176;7.776;2023-05-10T08:26:43;9.07;;;6.22;;
45686;SDS011;31399;51.176;7.776;2023-05-10T08:29:10;14.90;;;7.38;;
45686;SDS011;31399;51.176;7.776;2023-05-10T08:31:37;14.45;;;7.70;;
45686;SDS011;31399;51.176;7.776;2023-05-10T08:34:03;15.15;;;7.90;;
45686;SDS011;31399;51.176;7.776;2023-05-10T08:36:30;11.82;;;7.53;;
45686;SDS011;31399;51.176;7.776;2023-05-10T08:38:58;11.38;;;6.57;;
45686;SDS011;31399;51.176;7.776;2023-05-10T08:41:25;12.27;;;6.43;;
45686;SDS011;31399;51.176;7.776;2023-05-10T08:43:54;14.77;;;6.53;;
45686;SDS011;31399;51.176;7.776;2023-05-10T08:46:21;11.63;;;6.70;;
45686;SDS011;31399;51.176;7.776;2023-05-10T08:48:50;10.93;;;5.53;;
45686;SDS011;31399;51.176;7.776;2023-05-10T08:51:19;13.55;;;5.50;;
45686;SDS011;31399;51.176;7.776;2023-05-10T08:53:47;9.75;;;5.72;;
45686;SDS011;31399;51.176;7.776;2023-05-10T08:56:15;11.52;;;5.82;;
45686;SDS011;31399;51.176;7.776;2023-05-10T08:58:42;10.32;;;6.00;;
45686;SDS011;31399;51.176;7.776;2023-05-10T09:01:09;15.32;;;6.00;;
45686;SDS011;31399;51.176;7.776;2023-05-10T09:03:38;14.00;;;5.78;;
45686;SDS011;31399;51.176;7.776;2023-05-10T09:06:05;12.43;;;6.07;;
45686;SDS011;31399;51.176;7.776;2023-05-10T09:08:33;10.77;;;5.40;;
45686;SDS011;31399;51.176;7.776;2023-05-10T09:11:00;11.50;;;5.97;;
45686;SDS011;31399;51.176;7.776;2023-05-10T09:13:27;9.90;;;5.18;;
45686;SDS011;31399;51.176;7.776;2023-05-10T09:15:55;12.65;;;5.53;;
45686;SDS011;31399;51.176;7.776;2023-05-10T09:18:27;9.00;;;5.15;;
45686;SDS011;31399;51.176;7.776;2023-05-10T09:20:54;13.48;;;6.72;;
45686;SDS011;31399;51.176;7.776;2023-05-10T09:23:21;9.63;;;5.60;;
45686;SDS011;31399;51.176;7.776;2023-05-10T09:25:47;7.80;;;5.10;;
45686;SDS011;31399;51.176;7.776;2023-05-10T09:28:14;10.45;;;5.60;;
45686;SDS011;31399;51.176;7.776;2023-05-10T09:30:41;12.05;;;5.53;;
45686;SDS011;31399;51.176;7.776;2023-05-10T09:33:09;9.90;;;5.20;;
45686;SDS011;31399;51.176;7.776;2023-05-10T09:35:36;7.90;;;5.22;;
45686;SDS011;31399;51.176;7.776;2023-05-10T09:38:05;7.88;;;5.05;;
45686;SDS011;31399;51.176;7.776;2023-05-10T09:40:32;12.57;;;5.45;;
45686;SDS011;31399;51.176;7.776;2023-05-10T09:43:03;9.80;;;5.00;;
45686;SDS011;31399;51.176;7.776;2023-05-10T09:45:35;9.27;;;4.65;;
45686;SDS011;31399;51.176;7.776;2023-05-10T09:48:04;9.50;;;5.03;;
45686;SDS011;31399;51.176;7.776;2023-05-10T09:50:32;11.30;;;5.30;;
45686;SDS011;31399;51.176;7.776;2023-05-10T09:53:01;8.13;;;5.15;;
45686;SDS011;31399;51.176;7.776;2023-05-10T09:55:41;10.70;;;5.93;;
45686;SDS011;31399;51.176;7.776;2023-05-10T09:58:14;8.68;;;4.10;;
45686;SDS011;31399;51.176;7.776;2023-05-10T10:00:43;7.35;;;4.40;;
45686;SDS011;31399;51.176;7.776;2023-05-10T10:03:15;12.80;;;5.45;;
45686;SDS011;31399;51.176;7.776;2023-05-10T10:05:54;8.52;;;4.60;;
45686;SDS011;31399;51.176;7.776;2023-05-10T10:08:22;6.10;;;3.35;;
45686;SDS011;31399;51.176;7.776;2023-05-10T10:10:51;4.47;;;3.38;;
45686;SDS011;31399;51.176;7.776;2023-05-10T10:13:18;5.97;;;3.00;;
45686;SDS011;31399;51.176;7.776;2023-05-10T10:15:55;4.18;;;2.72;;
45686;SDS011;31399;51.176;7.776;2023-05-10T10:18:25;5.35;;;2.25;;
45686;SDS011;31399;51.176;7.776;2023-05-10T10:20:56;8.35;;;2.20;;
45686;SDS011;31399;51.176;7.776;2023-05-10T10:23:24;7.80;;;2.92;;
45686;SDS011;31399;51.176;7.776;2023-05-10T10:25:55;6.63;;;2.75;;
45686;SDS011;31399;51.176;7.776;2023-05-10T10:28:35;4.85;;;2.40;;
45686;SDS011;31399;51.176;7.776;2023-05-10T10:34:05;5.05;;;3.08;;
45686;SDS011;31399;51.176;7.776;2023-05-10T10:36:42;4.55;;;2.45;;
45686;SDS011;31399;51.176;7.776;2023-05-10T10:39:15;4.55;;;3.05;;
45686;SDS011;31399;51.176;7.776;2023-05-10T10:41:52;5.40;;;2.85;;
45686;SDS011;31399;51.176;7.776;2023-05-10T10:52:26;6.05;;;2.83;;
45686;SDS011;31399;51.176;7.776;2023-05-10T11:02:59;7.38;;;3.10;;
45686;SDS011;31399;51.176;7.776;2023-05-10T11:05:49;11.95;;;2.53;;
45686;SDS011;31399;51.176;7.776;2023-05-10T11:08:25;6.25;;;3.20;;
45686;SDS011;31399;51.176;7.776;2023-05-10T11:11:04;5.07;;;2.60;;
45686;SDS011;31399;51.176;7.776;2023-05-10T11:13:54;4.30;;;2.40;;
45686;SDS011;31399;51.176;7.776;2023-05-10T11:16:42;7.82;;;3.20;;
45686;SDS011;31399;51.176;7.776;2023-05-10T11:19:10;5.30;;;3.90;;
45686;SDS011;31399;51.176;7.776;2023-05-10T11:24:19;1.88;;;1.30;;
45686;SDS011;31399;51.176;7.776;2023-05-10T11:26:48;2.08;;;0.80;;
45686;SDS011;31399;51.176;7.776;2023-05-10T11:29:16;1.33;;;0.90;;
45686;SDS011;31399;51.176;7.776;2023-05-10T11:31:43;3.17;;;1.20;;
45686;SDS011;31399;51.176;7.776;2023-05-10T11:34:11;2.55;;;1.23;;
45686;SDS011;31399;51.176;7.776;2023-05-10T11:36:42;2.28;;;1.50;;
45686;SDS011;31399;51.176;7.776;2023-05-10T11:39:09;5.13;;;2.42;;
45686;SDS011;31399;51.176;7.776;2023-05-10T11:41:37;6.85;;;4.18;;
45686;SDS011;31399;51.176;7.776;2023-05-10T11:44:08;8.10;;;5.43;;
45686;SDS011;31399;51.176;7.776;2023-05-10T11:46:35;12.07;;;6.85;;
45686;SDS011;31399;51.176;7.776;2023-05-10T11:49:03;9.93;;;6.38;;
45686;SDS011;31399;51.176;7.776;2023-05-10T11:51:33;10.70;;;6.40;;
45686;SDS011;31399;51.176;7.776;2023-05-10T11:54:05;10.60;;;5.72;;
45686;SDS011;31399;51.176;7.776;2023-05-10T11:56:32;10.75;;;5.15;;
45686;SDS011;31399;51.176;7.776;2023-05-10T11:58:59;10.07;;;6.15;;
45686;SDS011;31399;51.176;7.776;2023-05-10T12:01:28;13.52;;;6.68;;
45686;SDS011;31399;51.176;7.776;2023-05-10T12:03:55;12.63;;;6.78;;
45686;SDS011;31399;51.176;7.776;2023-05-10T12:06:27;13.90;;;6.80;;
45686;SDS011;31399;51.176;7.776;2023-05-10T12:08:55;15.60;;;8.15;;
45686;SDS011;31399;51.176;7.776;2023-05-10T12:11:25;16.63;;;8.30;;
45686;SDS011;31399;51.176;7.776;2023-05-10T12:13:53;15.57;;;8.32;;
45686;SDS011;31399;51.176;7.776;2023-05-10T12:16:24;14.32;;;8.35;;
45686;SDS011;31399;51.176;7.776;2023-05-10T12:18:56;19.30;;;8.52;;
45686;SDS011;31399;51.176;7.776;2023-05-10T12:21:24;18.13;;;9.63;;
45686;SDS011;31399;51.176;7.776;2023-05-10T12:23:58;17.77;;;8.73;;
45686;SDS011;31399;51.176;7.776;2023-05-10T12:26:27;14.30;;;7.70;;
45686;SDS011;31399;51.176;7.776;2023-05-10T12:28:54;12.95;;;7.60;;
45686;SDS011;31399;51.176;7.776;2023-05-10T12:31:21;11.45;;;7.00;;
45686;SDS011;31399;51.176;7.776;2023-05-10T12:33:48;14.25;;;8.00;;
45686;SDS011;31399;51.176;7.776;2023-05-10T12:36:15;13.02;;;7.57;;
45686;SDS011;31399;51.176;7.776;2023-05-10T12:38:45;14.90;;;7.53;;
45686;SDS011;31399;51.176;7.776;2023-05-10T12:41:16;12.57;;;7.38;;
45686;SDS011;31399;51.176;7.776;2023-05-10T12:43:44;12.57;;;7.70;;
45686;SDS011;31399;51.176;7.776;2023-05-10T12:46:16;17.90;;;7.20;;
45686;SDS011;31399;51.176;7.776;2023-05-10T12:48:43;12.48;;;7.07;;
45686;SDS011;31399;51.176;7.776;2023-05-10T12:51:10;12.52;;;7.45;;
45686;SDS011;31399;51.176;7.776;2023-05-10T12:53:46;17.05;;;7.57;;
45686;SDS011;31399;51.176;7.776;2023-05-10T12:56:15;13.75;;;7.80;;
45686;SDS011;31399;51.176;7.776;2023-05-10T12:58:41;13.65;;;7.93;;
45686;SDS011;31399;51.176;7.776;2023-05-10T13:01:08;17.35;;;8.50;;
45686;SDS011;31399;51.176;7.776;2023-05-10T13:03:35;15.95;;;8.55;;
45686;SDS011;31399;51.176;7.776;2023-05-10T13:06:01;17.15;;;8.70;;
45686;SDS011;31399;51.176;7.776;2023-05-10T13:08:28;17.52;;;9.57;;
45686;SDS011;31399;51.176;7.776;2023-05-10T13:11:00;15.32;;;8.40;;
45686;SDS011;31399;51.176;7.776;2023-05-10T13:13:27;14.00;;;7.88;;
45686;SDS011;31399;51.176;7.776;2023-05-10T13:15:54;15.15;;;7.85;;
45686;SDS011;31399;51.176;7.776;2023-05-10T13:18:20;14.75;;;8.95;;
45686;SDS011;31399;51.176;7.776;2023-05-10T13:20:47;13.45;;;7.75;;
45686;SDS011;31399;51.176;7.776;2023-05-10T13:23:15;16.48;;;8.82;;
45686;SDS011;31399;51.176;7.776;2023-05-10T13:25:42;13.30;;;7.80;;
45686;SDS011;31399;51.176;7.776;2023-05-10T13:28:09;16.63;;;7.32;;
45686;SDS011;31399;51.176;7.776;2023-05-10T13:30:35;11.95;;;6.88;;
45686;SDS011;31399;51.176;7.776;2023-05-10T13:33:02;13.93;;;6.82;;
45686;SDS011;31399;51.176;7.776;2023-05-10T13:35:29;10.32;;;6.38;;
45686;SDS011;31399;51.176;7.776;2023-05-10T13:37:56;9.88;;;6.03;;
45686;SDS011;31399;51.176;7.776;2023-05-10T13:40:23;11.13;;;6.53;;
45686;SDS011;31399;51.176;7.776;2023-05-10T13:42:50;14.05;;;6.07;;
45686;SDS011;31399;51.176;7.776;2023-05-10T13:45:17;12.05;;;6.82;;
45686;SDS011;31399;51.176;7.776;2023-05-10T13:47:44;14.00;;;6.65;;
45686;SDS011;31399;51.176;7.776;2023-05-10T13:50:11;12.55;;;6.78;;
45686;SDS011;31399;51.176;7.776;2023-05-10T13:52:37;11.15;;;6.63;;
45686;SDS011;31399;51.176;7.776;2023-05-10T13:55:04;13.18;;;6.20;;
45686;SDS011;31399;51.176;7.776;2023-05-10T13:57:31;11.77;;;6.95;;
45686;SDS011;31399;51.176;7.776;2023-05-10T13:59:58;12.05;;;6.63;;
45686;SDS011;31399;51.176;7.776;2023-05-10T14:02:24;9.38;;;5.85;;
45686;SDS011;31399;51.176;7.776;2023-05-10T14:04:52;12.65;;;7.10;;
45686;SDS011;31399;51.176;7.776;2023-05-10T14:07:18;14.27;;;7.53;;
45686;SDS011;31399;51.176;7.776;2023-05-10T14:09:45;13.90;;;7.95;;
45686;SDS011;31399;51.176;7.776;2023-05-10T14:12:12;14.93;;;7.38;;
45686;SDS011;31399;51.176;7.776;2023-05-10T14:14:40;13.55;;;7.53;;
45686;SDS011;31399;51.176;7.776;2023-05-10T14:17:07;14.30;;;7.32;;
45686;SDS011;31399;51.176;7.776;2023-05-10T14:19:37;10.45;;;6.60;;
45686;SDS011;31399;51.176;7.776;2023-05-10T14:22:05;14.57;;;8.13;;
45686;SDS011;31399;51.176;7.776;2023-05-10T14:24:32;12.13;;;7.05;;
45686;SDS011;31399;51.176;7.776;2023-05-10T14:26:58;13.48;;;6.93;;
45686;SDS011;31399;51.176;7.776;2023-05-10T14:29:25;12.10;;;7.18;;
45686;SDS011;31399;51.176;7.776;2023-05-10T14:31:52;14.15;;;7.18;;
45686;SDS011;31399;51.176;7.776;2023-05-10T14:34:19;11.68;;;7.00;;
45686;SDS011;31399;51.176;7.776;2023-05-10T14:36:46;13.40;;;6.93;;
45686;SDS011;31399;51.176;7.776;2023-05-10T14:39:12;12.88;;;6.97;;
45686;SDS011;31399;51.176;7.776;2023-05-10T14:41:39;12.00;;;7.00;;
45686;SDS011;31399;51.176;7.776;2023-05-10T14:44:09;11.10;;;7.05;;
45686;SDS011;31399;51.176;7.776;2023-05-10T14:46:36;12.63;;;7.00;;
45686;SDS011;31399;51.176;7.776;2023-05-10T14:49:03;10.43;;;5.82;;
45686;SDS011;31399;51.176;7.776;2023-05-10T14:51:30;13.80;;;6.40;;
45686;SDS011;31399;51.176;7.776;2023-05-10T14:53:58;11.25;;;6.35;;
45686;SDS011;31399;51.176;7.776;2023-05-10T14:56:25;9.70;;;5.65;;
45686;SDS011;31399;51.176;7.776;2023-05-10T14:58:52;9.82;;;5.40;;
45686;SDS011;31399;51.176;7.776;2023-05-10T15:01:19;10.25;;;5.13;;
45686;SDS011;31399;51.176;7.776;2023-05-10T15:03:46;10.93;;;5.50;;
45686;SDS011;31399;51.176;7.776;2023-05-10T15:06:14;14.23;;;5.95;;
45686;SDS011;31399;51.176;7.776;2023-05-10T15:08:42;8.77;;;5.30;;
45686;SDS011;31399;51.176;7.776;2023-05-10T15:11:08;7.68;;;5.28;;
45686;SDS011;31399;51.176;7.776;2023-05-10T15:13:35;7.85;;;5.25;;
45686;SDS011;31399;51.176;7.776;2023-05-10T15:16:02;11.02;;;5.35;;
45686;SDS011;31399;51.176;7.776;2023-05-10T15:18:28;8.57;;;4.40;;
45686;SDS011;31399;51.176;7.776;2023-05-10T15:20:55;7.35;;;4.82;;
45686;SDS011;31399;51.176;7.776;2023-05-10T15:23:22;7.97;;;5.43;;
45686;SDS011;31399;51.176;7.776;2023-05-10T15:25:49;8.18;;;5.25;;
45686;SDS011;31399;51.176;7.776;2023-05-10T15:28:18;9.73;;;5.07;;
45686;SDS011;31399;51.176;7.776;2023-05-10T15:30:45;7.88;;;5.32;;
45686;SDS011;31399;51.176;7.776;2023-05-10T15:33:11;9.32;;;5.25;;
45686;SDS011;31399;51.176;7.776;2023-05-10T15:35:38;9.88;;;5.22;;